地図

経路データ

SID SEASON NUMBER BASIN SUBBASIN NAME ISO_TIME NATURE LAT LON WMO_WIND WMO_PRES WMO_AGENCY TRACK_TYPE DIST2LAND LANDFALL IFLAG USA_AGENCY USA_ATCF_ID USA_LAT USA_LON USA_RECORD USA_STATUS USA_WIND USA_PRES USA_SSHS USA_R34_NE USA_R34_SE USA_R34_SW USA_R34_NW USA_R50_NE USA_R50_SE USA_R50_SW USA_R50_NW USA_R64_NE USA_R64_SE USA_R64_SW USA_R64_NW USA_POCI USA_ROCI USA_RMW USA_EYE TOKYO_LAT TOKYO_LON TOKYO_GRADE TOKYO_WIND TOKYO_PRES TOKYO_R50_DIR TOKYO_R50_LONG TOKYO_R50_SHORT TOKYO_R30_DIR TOKYO_R30_LONG TOKYO_R30_SHORT TOKYO_LAND CMA_LAT CMA_LON CMA_CAT CMA_WIND CMA_PRES HKO_LAT HKO_LON HKO_CAT HKO_WIND HKO_PRES NEWDELHI_LAT NEWDELHI_LON NEWDELHI_GRADE NEWDELHI_WIND NEWDELHI_PRES NEWDELHI_CI NEWDELHI_DP NEWDELHI_POCI REUNION_LAT REUNION_LON REUNION_TYPE REUNION_WIND REUNION_PRES REUNION_TNUM REUNION_CI REUNION_RMW REUNION_R34_NE REUNION_R34_SE REUNION_R34_SW REUNION_R34_NW REUNION_R50_NE REUNION_R50_SE REUNION_R50_SW REUNION_R50_NW REUNION_R64_NE REUNION_R64_SE REUNION_R64_SW REUNION_R64_NW BOM_LAT BOM_LON BOM_TYPE BOM_WIND BOM_PRES BOM_TNUM BOM_CI BOM_RMW BOM_R34_NE BOM_R34_SE BOM_R34_SW BOM_R34_NW BOM_R50_NE BOM_R50_SE BOM_R50_SW BOM_R50_NW BOM_R64_NE BOM_R64_SE BOM_R64_SW BOM_R64_NW BOM_ROCI BOM_POCI BOM_EYE BOM_POS_METHOD BOM_PRES_METHOD NADI_LAT NADI_LON NADI_CAT NADI_WIND NADI_PRES WELLINGTON_LAT WELLINGTON_LON WELLINGTON_WIND WELLINGTON_PRES DS824_LAT DS824_LON DS824_STAGE DS824_WIND DS824_PRES TD9636_LAT TD9636_LON TD9636_STAGE TD9636_WIND TD9636_PRES TD9635_LAT TD9635_LON TD9635_WIND TD9635_PRES TD9635_ROCI NEUMANN_LAT NEUMANN_LON NEUMANN_CLASS NEUMANN_WIND NEUMANN_PRES MLC_LAT MLC_LON MLC_CLASS MLC_WIND MLC_PRES USA_GUST BOM_GUST BOM_GUST_PER REUNION_GUST REUNION_GUST_PER USA_SEAHGT USA_SEARAD_NE USA_SEARAD_SE USA_SEARAD_SW USA_SEARAD_NW STORM_SPEED STORM_DIR
1966270N09090 1966 88 NI BB NOT_NAMED 1966-09-27 03:00:00 NR 9.40000 90.0000 main 714 714 __________O___ -1 9.40000 90.0000 1 8 0
1966270N09090 1966 88 NI BB NOT_NAMED 1966-09-27 06:00:00 TS 9.78835 89.9915 main 741 741 O________OP___ jtwc_io IO081966 9.80000 90.0000 -1 9.80000 90.0000 TC 25 9.77669 89.9830 1 8 358
1966270N09090 1966 88 NI BB NOT_NAMED 1966-09-27 09:00:00 TS 10.1440 89.9869 main 763 761 P________PP___ IO081966 10.1375 90.0050 -1 10.1375 90.0050 TC 25 10.1527 89.9627 1 7 358
1966270N09090 1966 88 NI BB NOT_NAMED 1966-09-27 12:00:00 TS 10.5110 89.9745 main 761 726 O________OP___ jtwc_io IO081966 10.5000 90.0000 -1 10.5000 90.0000 TC 25 10.5274 89.9361 1 8 357
1966270N09090 1966 88 NI BB NOT_NAMED 1966-09-27 15:00:00 TS 10.9000 89.9483 main 733 700 P________PO___ IO081966 10.9000 89.9725 -1 10.9000 89.9725 TC 25 10.9000 89.9000 1 8 354
1966270N09090 1966 88 NI BB NOT_NAMED 1966-09-27 18:00:00 TS 11.2897 89.8822 main 700 684 O________OP___ jtwc_io IO081966 11.3000 89.9000 -1 11.3000 89.9000 TC 25 11.2690 89.8465 1 8 348
1966270N09090 1966 88 NI BB NOT_NAMED 1966-09-27 21:00:00 TS 11.6531 89.7847 main 676 668 P________PP___ IO081966 11.6649 89.8024 -1 11.6649 89.8024 TC 25 11.6294 89.7494 1 8 338
1966270N09090 1966 88 NI BB NOT_NAMED 1966-09-28 00:00:00 TS 11.9917 89.5925 main 668 661 O________OP___ jtwc_io IO081966 12.0000 89.6000 -1 12.0000 89.6000 TC 25 11.9751 89.5776 1 8 323
1966270N09090 1966 88 NI BB NOT_NAMED 1966-09-28 03:00:00 TS 12.3100 89.2733 main 671 671 P________PO___ IO081966 12.3150 89.2600 -1 12.3150 89.2600 TC 25 12.3000 89.3000 1 10 309
1966270N09090 1966 88 NI BB NOT_NAMED 1966-09-28 06:00:00 TS 12.5923 88.8249 main 695 695 O________OP___ jtwc_io IO081966 12.6000 88.8000 -1 12.6000 88.8000 TC 25 12.5768 88.8745 1 11 299
1966270N09090 1966 88 NI BB NOT_NAMED 1966-09-28 09:00:00 TS 12.8403 88.2972 main 729 703 P________PP___ IO081966 12.8425 88.2723 -1 12.8425 88.2723 TC 25 12.8358 88.3471 1 12 295
1966270N09090 1966 88 NI BB NOT_NAMED 1966-09-28 12:00:00 TS 13.1006 87.7237 main 697 636 O________OP___ jtwc_io IO081966 13.1000 87.7000 -1 13.1000 87.7000 TC 25 13.1018 87.7712 1 12 298
1966270N09090 1966 88 NI BB NOT_NAMED 1966-09-28 15:00:00 TS 13.4183 87.1666 main 636 557 P________PO___ IO081966 13.4274 87.1499 -1 13.4274 87.1499 TC 25 13.4000 87.2000 1 13 302
1966270N09090 1966 88 NI BB NOT_NAMED 1966-09-28 18:00:00 TS 13.7922 86.6021 main 557 479 O________OP___ jtwc_io IO081966 13.8000 86.6000 -1 13.8000 86.6000 TC 25 13.7767 86.6063 1 14 305
1966270N09090 1966 88 NI BB NOT_NAMED 1966-09-28 21:00:00 TS 14.1953 86.0025 main 479 409 P________PP___ IO081966 14.2002 85.9828 -1 14.2002 85.9828 TC 25 14.1856 86.0420 1 13 308
1966270N09090 1966 88 NI BB NOT_NAMED 1966-09-29 00:00:00 TS 14.6005 85.5272 main 409 367 O________OP___ jtwc_io IO081966 14.6000 85.5000 -1 14.6000 85.5000 TC 25 14.6016 85.5815 1 10 318
1966270N09090 1966 88 NI BB NOT_NAMED 1966-09-29 03:00:00 TS 14.9715 85.2866 main 367 341 P________PO___ IO081966 14.9572 85.2799 -1 14.9572 85.2799 TC 30 15.0000 85.3000 2 8 343
1966270N09090 1966 88 NI BB NOT_NAMED 1966-09-29 06:00:00 TS 15.3153 85.2943 main 341 324 O________OP___ jtwc_io IO081966 15.3000 85.3000 -1 15.3000 85.3000 TC 35 15.3460 85.2828 2 7 15
1966270N09090 1966 88 NI BB NOT_NAMED 1966-09-29 09:00:00 TS 15.6624 85.4851 main 324 308 P________PP___ IO081966 15.6576 85.5048 -1 15.6576 85.5048 TC 35 15.6721 85.4459 2 8 34
1966270N09090 1966 88 NI BB NOT_NAMED 1966-09-29 12:00:00 TS 15.9957 85.7704 main 314 301 O________OP___ jtwc_io IO081966 16.0000 85.8000 -1 16.0000 85.8000 TC 35 15.9870 85.7113 2 8 38
1966270N09090 1966 88 NI BB NOT_NAMED 1966-09-29 15:00:00 TS 16.3000 86.0051 main 301 292 P________PO___ IO081966 16.3000 86.0076 -1 16.3000 86.0076 TC 35 16.3000 86.0000 3 7 34
1966270N09090 1966 88 NI BB NOT_NAMED 1966-09-29 18:00:00 TS 16.5852 86.1873 main 292 284 O________OP___ jtwc_io IO081966 16.6000 86.2000 -1 16.6000 86.2000 TC 35 16.5557 86.1618 3 7 31
1966270N09090 1966 88 NI BB NOT_NAMED 1966-09-29 21:00:00 TS 16.8974 86.3734 main 284 269 P________PP___ IO081966 16.9350 86.3926 -1 16.9350 86.3926 TC 50 16.8221 86.3350 3 8 29
1966270N09090 1966 88 NI BB NOT_NAMED 1966-09-30 00:00:00 TS 17.2508 86.5802 main 269 265 O________OP___ jtwc_io IO081966 17.3000 86.6000 -1 17.3000 86.6000 TC 65 17.1525 86.5406 3 8 30
1966270N09090 1966 88 NI BB NOT_NAMED 1966-09-30 03:00:00 TS 17.6166 86.8138 main 267 224 P________PO___ IO081966 17.6249 86.8206 -1 17.6249 86.8206 TC 65 17.6000 86.8000 4 10 29
1966270N09090 1966 88 NI BB NOT_NAMED 1966-09-30 06:00:00 TS 18.1493 87.1059 main 224 168 O________OP___ jtwc_io IO081966 18.1000 87.1000 -1 18.1000 87.1000 TC 65 18.2480 87.1177 4 15 25
1966270N09090 1966 88 NI BB NOT_NAMED 1966-09-30 09:00:00 TS 18.9349 87.4731 main 168 133 P________PP___ IO081966 18.8975 87.4624 -1 18.8975 87.4624 TC 65 19.0098 87.4947 4 18 25
1966270N09090 1966 88 NI BB NOT_NAMED 1966-09-30 12:00:00 TS 19.8056 87.9081 main 137 111 O________OP___ jtwc_io IO081966 19.8000 87.9000 -1 19.8000 87.9000 TC 65 19.8167 87.9244 4 19 27
1966270N09090 1966 88 NI BB NOT_NAMED 1966-09-30 15:00:00 TS 20.5916 88.3852 main 111 33 P________PO___ IO081966 20.5874 88.3778 -1 20.5874 88.3778 TC 50 20.6000 88.4000 4 18 32
1966270N09090 1966 88 NI BB NOT_NAMED 1966-09-30 18:00:00 TS 21.2976 88.8957 main 33 0 O________OP___ jtwc_io IO081966 21.3000 88.9000 -1 21.3000 88.9000 TC 35 21.2929 88.8871 4 17 36
1966270N09090 1966 88 NI BB NOT_NAMED 1966-09-30 21:00:00 TS 21.9354 89.4298 main 0 0 P________PP___ IO081966 21.9298 89.4356 -1 21.9298 89.4356 TC 30 21.9466 89.4182 4 16 40
1966270N09090 1966 88 NI BB NOT_NAMED 1966-10-01 00:00:00 TS 22.5173 89.9968 main 0 0 O________OP___ jtwc_io IO081966 22.5000 90.0000 -1 22.5000 90.0000 TC 25 22.5520 89.9903 4 16 43
1966270N09090 1966 88 NI BB NOT_NAMED 1966-10-01 03:00:00 TS 23.0814 90.5853 main 0 0 P________PO___ IO081966 23.0722 90.5779 -1 23.0722 90.5779 TC 25 23.1000 90.6000 1 16 46
1966270N09090 1966 88 NI BB NOT_NAMED 1966-10-01 06:00:00 TS 23.5942 91.2172 main 0 0 O________OP___ jtwc_io IO081966 23.6000 91.2000 -1 23.6000 91.2000 TC 25 23.5855 91.2430 1 15 51
1966270N09090 1966 88 NI BB NOT_NAMED 1966-10-01 09:00:00 TS 24.0477 91.8947 main 0 0 P________PP___ IO081966 24.0683 91.8816 -1 24.0683 91.8816 TC 25 24.0202 91.9123 1 15 56
1966270N09090 1966 88 NI BB NOT_NAMED 1966-10-01 12:00:00 TS 24.4599 92.6002 main 0 0 O________OP___ jtwc_io IO081966 24.5000 92.6000 -1 24.5000 92.6000 TC 25 24.4197 92.6005 1 15 60
1966270N09090 1966 88 NI BB NOT_NAMED 1966-10-01 15:00:00 NR 24.8000 93.3000 main 0 __________O___ IO081966 -1 TC 24.8000 93.3000 1 14 62

IBTrACS Databaseについて

本データベースは、米国NOAAが公開する1842年以降の世界の熱帯低気圧のベストトラックデータアーカイブInternational Best Track Archive for Climate Stewardship (IBTrACS)を、ウェブで閲覧しやすい形式に変換したものです。

最終更新日:2021-10-25